createdAt,value
2022-12-03T00:04:27.921Z,100820.38
2022-12-03T00:14:31.694Z,100796.03
2022-12-03T00:24:36.708Z,100797.78
2022-12-03T00:34:40.631Z,100792.53
2022-12-03T00:44:45.658Z,100793.00
2022-12-03T00:54:49.551Z,100789.41
2022-12-03T01:04:54.879Z,100793.78
2022-12-03T01:14:58.945Z,100786.78
2022-12-03T01:25:04.473Z,100790.88
2022-12-03T01:35:09.078Z,100793.16
2022-12-03T01:45:22.569Z,100797.50
2022-12-03T01:55:27.506Z,100785.59
2022-12-03T02:05:34.461Z,100793.00
2022-12-03T02:15:41.255Z,100791.00
2022-12-03T02:25:46.400Z,100786.56
2022-12-03T02:35:50.470Z,100791.75
2022-12-03T02:45:58.112Z,100778.25
2022-12-03T02:56:04.450Z,100783.38
2022-12-03T03:06:10.561Z,100768.22
2022-12-03T03:16:15.029Z,100775.28
2022-12-03T03:26:20.254Z,100771.91
2022-12-03T03:36:25.953Z,100770.28
2022-12-03T03:46:33.209Z,100778.13
2022-12-03T03:56:37.217Z,100761.28
2022-12-03T04:06:42.258Z,100755.09
2022-12-03T04:16:46.174Z,100745.88
2022-12-03T04:27:08.693Z,100745.03
2022-12-03T04:37:13.057Z,100739.03
2022-12-03T04:47:21.630Z,100724.66
2022-12-03T04:57:25.543Z,100722.69
2022-12-03T05:07:30.685Z,100734.91
2022-12-03T05:17:34.525Z,100739.03
2022-12-03T05:27:39.567Z,100734.03
2022-12-03T05:37:43.338Z,100736.13
2022-12-03T05:47:48.361Z,100735.41
2022-12-03T05:57:52.290Z,100731.50
2022-12-03T06:07:57.389Z,100745.09
2022-12-03T06:18:01.176Z,100735.53
2022-12-03T06:28:07.375Z,100731.09
2022-12-03T06:38:11.136Z,100719.66
2022-12-03T06:48:16.264Z,100723.88
2022-12-03T06:58:20.063Z,100716.44
2022-12-03T07:08:25.186Z,100708.00
2022-12-03T07:18:28.833Z,100714.22
2022-12-03T07:28:33.904Z,100730.28
2022-12-03T07:38:38.171Z,100722.84
2022-12-03T07:48:43.161Z,100728.00
2022-12-03T07:58:46.853Z,100713.00
2022-12-03T08:08:52.021Z,100713.97
2022-12-03T08:18:57.547Z,100723.63
2022-12-03T08:29:02.714Z,100733.56
2022-12-03T08:39:31.510Z,100729.50
2022-12-03T08:49:37.163Z,100731.53
2022-12-03T08:59:45.333Z,100737.63
2022-12-03T09:10:07.737Z,100724.13
2022-12-03T09:20:12.831Z,100717.22
2022-12-03T09:30:18.705Z,100720.00
2022-12-03T09:40:23.037Z,100715.34
2022-12-03T09:50:28.817Z,100709.44
2022-12-03T10:00:32.740Z,100700.59
2022-12-03T10:10:40.995Z,100690.59
2022-12-03T10:20:44.964Z,100674.28
2022-12-03T10:30:55.970Z,100657.38
2022-12-03T10:41:21.259Z,100645.00
2022-12-03T10:51:26.419Z,100647.84
2022-12-03T11:01:30.615Z,100645.41
2022-12-03T11:11:35.792Z,100631.03
2022-12-03T11:22:32.542Z,100621.28
2022-12-03T11:33:24.059Z,100606.34
2022-12-03T11:44:06.083Z,100600.28
2022-12-03T11:54:20.338Z,100593.88
2022-12-03T12:04:37.906Z,100575.06
2022-12-03T12:14:43.090Z,100558.75
2022-12-03T12:24:52.986Z,100548.09
2022-12-03T12:35:04.102Z,100542.03
2022-12-03T12:45:16.384Z,100548.41
2022-12-03T12:55:25.007Z,100545.72
2022-12-03T13:05:39.108Z,100539.38
2022-12-03T13:15:51.594Z,100554.84
2022-12-03T13:26:03.781Z,100548.66
2022-12-03T13:36:17.786Z,100554.19
2022-12-03T13:46:21.500Z,100545.84
2022-12-03T13:56:29.988Z,100528.97
2022-12-03T14:06:33.947Z,100525.81
2022-12-03T14:16:39.133Z,100532.00
2022-12-03T14:26:42.992Z,100522.88
2022-12-03T14:36:49.219Z,100518.09
2022-12-03T14:46:57.122Z,100518.75
2022-12-03T14:57:02.860Z,100513.00
2022-12-03T15:07:07.430Z,100501.00
2022-12-03T15:17:12.540Z,100518.16
2022-12-03T15:27:16.309Z,100525.25
2022-12-03T15:37:21.531Z,100526.47
2022-12-03T15:47:25.547Z,100513.19
2022-12-03T15:57:31.630Z,100520.91
2022-12-03T16:07:35.912Z,100513.66
2022-12-03T16:17:41.052Z,100527.22
2022-12-03T16:27:44.808Z,100529.53
2022-12-03T16:37:49.847Z,100518.84
2022-12-03T16:47:53.760Z,100517.13
2022-12-03T16:57:58.829Z,100504.50
2022-12-03T17:08:02.905Z,100501.03
2022-12-03T17:18:09.175Z,100500.38
2022-12-03T17:28:12.974Z,100490.69
2022-12-03T17:38:18.149Z,100490.38
2022-12-03T17:48:21.904Z,100482.22
2022-12-03T17:58:27.622Z,100479.09
2022-12-03T18:08:31.645Z,100492.00
2022-12-03T18:18:36.752Z,100483.31
2022-12-03T18:28:40.492Z,100477.88
2022-12-03T18:38:46.372Z,100485.50
2022-12-03T18:48:50.968Z,100476.47
2022-12-03T18:58:56.059Z,100471.03
2022-12-03T19:08:59.760Z,100461.34
2022-12-03T19:19:05.092Z,100459.63
2022-12-03T19:29:10.544Z,100464.94
2022-12-03T19:39:15.872Z,100457.66
2022-12-03T19:49:21.190Z,100442.88
2022-12-03T19:59:26.316Z,100444.31
2022-12-03T20:09:30.021Z,100443.66
2022-12-03T20:19:35.252Z,100448.97
2022-12-03T20:29:39.795Z,100448.66
2022-12-03T20:39:45.020Z,100451.28
2022-12-03T20:49:48.986Z,100442.03
2022-12-03T20:59:56.255Z,100438.31
2022-12-03T21:10:00.168Z,100428.44
2022-12-03T21:20:08.689Z,100428.97
2022-12-03T21:30:13.248Z,100421.94
2022-12-03T21:40:20.045Z,100406.28
2022-12-03T21:50:24.043Z,100424.09
2022-12-03T22:00:29.752Z,100422.69
2022-12-03T22:10:33.474Z,100415.19
2022-12-03T22:20:38.529Z,100411.28
2022-12-03T22:30:42.281Z,100409.66
2022-12-03T22:40:47.619Z,100409.53
2022-12-03T22:50:53.165Z,100408.47
2022-12-03T23:01:02.829Z,100391.16
2022-12-03T23:11:07.381Z,100377.16
2022-12-03T23:21:17.263Z,100375.66
2022-12-03T23:31:24.059Z,100360.88
2022-12-03T23:41:29.335Z,100355.13
2022-12-03T23:51:33.003Z,100354.16
